createdAt,value
2019-05-14T00:03:34.464Z,4.40
2019-05-14T00:08:35.953Z,4.30
2019-05-14T00:13:37.971Z,4.40
2019-05-14T00:18:41.764Z,4.20
2019-05-14T00:23:42.892Z,4.20
2019-05-14T00:28:44.448Z,4.00
2019-05-14T00:33:46.038Z,4.00
2019-05-14T00:38:47.596Z,3.90
2019-05-14T00:43:51.336Z,3.90
2019-05-14T00:48:52.935Z,3.80
2019-05-14T00:53:54.464Z,3.70
2019-05-14T00:58:55.964Z,3.60
2019-05-14T01:03:57.536Z,3.60
2019-05-14T01:09:01.057Z,3.60
2019-05-14T01:14:02.810Z,3.50
2019-05-14T01:19:04.608Z,3.30
2019-05-14T01:24:06.589Z,3.40
2019-05-14T01:29:08.175Z,3.30
2019-05-14T01:34:11.182Z,3.20
2019-05-14T01:39:13.243Z,3.20
2019-05-14T01:44:14.732Z,3.30
2019-05-14T01:49:16.229Z,3.30
2019-05-14T01:54:17.701Z,3.20
2019-05-14T01:59:21.246Z,3.10
2019-05-14T02:04:22.905Z,3.10
2019-05-14T02:09:24.386Z,3.00
2019-05-14T02:14:25.888Z,3.00
2019-05-14T02:19:27.355Z,2.80
2019-05-14T02:24:28.846Z,2.80
2019-05-14T02:29:32.058Z,2.80
2019-05-14T02:34:33.730Z,2.70
2019-05-14T02:39:35.310Z,2.70
2019-05-14T02:44:40.315Z,2.70
2019-05-14T02:49:40.536Z,2.60
2019-05-14T02:54:42.057Z,2.50
2019-05-14T02:59:43.613Z,2.60
2019-05-14T03:04:45.275Z,2.50
2019-05-14T03:09:49.841Z,2.50
2019-05-14T03:14:50.408Z,2.60
2019-05-14T03:19:52.227Z,2.50
2019-05-14T03:24:54.168Z,2.60
2019-05-14T03:29:58.496Z,2.60
2019-05-14T03:35:03.671Z,2.50
2019-05-14T03:40:09.257Z,2.50
2019-05-14T03:45:11.164Z,2.50
2019-05-14T03:50:13.143Z,2.50
2019-05-14T03:55:14.945Z,2.40
2019-05-14T04:00:22.428Z,2.60
2019-05-14T04:05:24.702Z,2.60
2019-05-14T04:10:29.885Z,2.70
2019-05-14T04:15:33.595Z,3.00
2019-05-14T04:20:39.237Z,3.00
2019-05-14T04:25:40.812Z,3.10
2019-05-14T04:30:43.598Z,3.40
2019-05-14T04:35:48.853Z,3.30
2019-05-14T04:40:49.899Z,3.80
2019-05-14T04:45:51.910Z,4.20
2019-05-14T04:50:53.453Z,4.50
2019-05-14T04:55:55.143Z,4.60
2019-05-14T05:01:00.135Z,4.50
2019-05-14T05:06:00.514Z,4.60
2019-05-14T05:11:02.001Z,4.70
2019-05-14T05:16:03.713Z,5.00
2019-05-14T05:21:05.239Z,5.70
2019-05-14T05:26:09.148Z,5.70
2019-05-14T05:31:10.533Z,5.70
2019-05-14T05:36:12.704Z,5.90
2019-05-14T05:41:14.192Z,6.00
2019-05-14T05:46:18.883Z,6.50
2019-05-14T05:51:19.940Z,6.40
2019-05-14T05:56:21.405Z,6.50
2019-05-14T06:01:38.588Z,6.70
2019-05-14T06:06:28.374Z,6.80
2019-05-14T06:11:30.104Z,7.20
2019-05-14T06:16:31.668Z,7.20
2019-05-14T06:21:33.154Z,7.20
2019-05-14T06:26:34.647Z,7.50
2019-05-14T06:31:38.663Z,7.90
2019-05-14T06:36:39.749Z,7.90
2019-05-14T06:41:42.976Z,8.20
2019-05-14T06:46:45.350Z,8.40
2019-05-14T06:51:48.965Z,8.80
2019-05-14T06:56:50.466Z,8.70
2019-05-14T07:01:52.022Z,8.90
2019-05-14T07:06:54.006Z,9.10
2019-05-14T07:11:55.490Z,9.30
2019-05-14T07:16:58.849Z,9.40
2019-05-14T07:22:00.487Z,9.50
2019-05-14T07:27:02.085Z,9.90
2019-05-14T07:32:03.654Z,10.30
2019-05-14T07:37:05.337Z,10.40
2019-05-14T07:42:09.904Z,10.60
2019-05-14T07:47:10.599Z,11.10
2019-05-14T07:52:12.098Z,11.20
2019-05-14T07:57:13.705Z,11.10
2019-05-14T08:02:15.278Z,11.60
2019-05-14T08:07:18.001Z,11.20
2019-05-14T08:12:19.775Z,11.40
2019-05-14T08:17:23.754Z,11.50
2019-05-14T08:22:25.236Z,11.80
2019-05-14T08:27:30.976Z,11.90
2019-05-14T08:32:30.126Z,11.20
2019-05-14T08:37:31.741Z,11.50
2019-05-14T08:42:34.329Z,12.00
2019-05-14T08:47:38.854Z,12.40
2019-05-14T08:52:40.181Z,11.80
2019-05-14T08:57:41.917Z,12.50
2019-05-14T09:02:43.608Z,12.70
2019-05-14T09:07:45.094Z,12.20
2019-05-14T09:12:51.480Z,12.80
2019-05-14T09:17:55.941Z,13.90
2019-05-14T09:22:59.520Z,13.40
2019-05-14T09:28:01.189Z,12.70
2019-05-14T09:33:02.938Z,12.80
2019-05-14T09:38:04.524Z,13.10
2019-05-14T09:43:09.034Z,14.20
2019-05-14T09:48:09.408Z,14.40
2019-05-14T09:53:10.997Z,14.10
2019-05-14T09:58:12.487Z,13.30
2019-05-14T10:03:14.232Z,12.80
2019-05-14T10:08:15.726Z,12.40
2019-05-14T10:13:17.312Z,13.80
2019-05-14T10:18:19.048Z,13.10
2019-05-14T10:23:20.790Z,13.10
2019-05-14T10:28:22.377Z,13.90
2019-05-14T10:33:23.794Z,13.40
2019-05-14T10:38:25.507Z,13.30
2019-05-14T10:43:28.909Z,13.00
2019-05-14T10:48:30.409Z,12.60
2019-05-14T10:53:32.005Z,12.80
2019-05-14T10:58:33.634Z,12.90
2019-05-14T11:03:35.778Z,13.00
2019-05-14T11:08:38.728Z,12.90
2019-05-14T11:13:40.482Z,12.80
2019-05-14T11:18:42.213Z,13.00
2019-05-14T11:23:43.999Z,13.00
2019-05-14T11:28:48.795Z,12.80
2019-05-14T11:33:49.833Z,12.50
2019-05-14T11:38:51.561Z,12.40
2019-05-14T11:43:53.050Z,12.70
2019-05-14T11:48:54.549Z,13.60
2019-05-14T11:53:58.559Z,13.40
2019-05-14T11:58:59.557Z,13.90
2019-05-14T12:04:01.293Z,13.80
2019-05-14T12:09:05.484Z,13.90
2019-05-14T12:14:08.991Z,13.40
2019-05-14T12:19:11.920Z,13.20
2019-05-14T12:24:14.044Z,13.70
2019-05-14T12:29:15.607Z,14.20
2019-05-14T12:34:18.641Z,14.10
2019-05-14T12:39:20.390Z,13.90
2019-05-14T12:44:22.203Z,14.90
2019-05-14T12:49:23.774Z,14.40
2019-05-14T12:54:25.265Z,13.50
2019-05-14T12:59:28.520Z,15.10
2019-05-14T13:04:30.245Z,15.50
2019-05-14T13:09:31.725Z,14.00
2019-05-14T13:14:33.224Z,14.90
2019-05-14T13:19:34.700Z,15.60
2019-05-14T13:24:39.297Z,14.40
2019-05-14T13:29:39.598Z,13.50
2019-05-14T13:34:41.118Z,14.70
2019-05-14T13:39:42.839Z,14.90
2019-05-14T13:44:44.352Z,13.70
2019-05-14T13:49:48.499Z,15.40
2019-05-14T13:54:49.232Z,15.90
2019-05-14T13:59:50.721Z,14.50
2019-05-14T14:04:52.370Z,14.40
2019-05-14T14:09:53.991Z,15.40
2019-05-14T14:14:55.468Z,15.90
2019-05-14T14:19:58.933Z,14.80
2019-05-14T14:25:00.547Z,14.40
2019-05-14T14:30:05.337Z,15.00
2019-05-14T14:35:08.817Z,15.00
2019-05-14T14:40:11.292Z,14.60
2019-05-14T14:45:13.893Z,14.60
2019-05-14T14:50:15.482Z,13.70
2019-05-14T14:55:19.330Z,14.10
2019-05-14T15:00:21.067Z,15.60
2019-05-14T15:05:22.812Z,14.10
2019-05-14T15:10:24.898Z,13.30
2019-05-14T15:15:26.393Z,14.40
2019-05-14T15:20:28.964Z,14.40
2019-05-14T15:25:30.725Z,15.50
2019-05-14T15:30:32.326Z,15.30
2019-05-14T15:35:33.962Z,15.70
2019-05-14T15:40:35.563Z,15.00
2019-05-14T15:45:37.835Z,14.10
2019-05-14T15:50:39.731Z,14.90
2019-05-14T15:55:42.676Z,15.10
2019-05-14T16:00:44.160Z,15.10
2019-05-14T16:05:48.631Z,15.70
2019-05-14T16:10:49.113Z,14.90
2019-05-14T16:15:50.707Z,14.60
2019-05-14T16:20:52.204Z,14.10
2019-05-14T16:25:53.691Z,14.10
2019-05-14T16:30:55.736Z,14.00
2019-05-14T16:35:57.962Z,13.50
2019-05-14T16:40:59.881Z,13.50
2019-05-14T16:46:01.449Z,13.10
2019-05-14T16:51:03.042Z,12.20
2019-05-14T16:56:04.934Z,12.20
2019-05-14T17:01:09.226Z,12.20
2019-05-14T17:06:10.274Z,12.10
2019-05-14T17:11:11.896Z,11.80
2019-05-14T17:16:13.581Z,11.70
2019-05-14T17:21:15.417Z,11.70
2019-05-14T17:26:17.403Z,11.40
2019-05-14T17:31:19.292Z,11.30
2019-05-14T17:36:20.901Z,11.20
2019-05-14T17:41:22.496Z,11.00
2019-05-14T17:46:25.107Z,10.90
2019-05-14T17:51:28.444Z,10.80
2019-05-14T17:56:30.231Z,10.60
2019-05-14T18:01:31.851Z,10.50
2019-05-14T18:06:33.399Z,10.40
2019-05-14T18:11:34.993Z,10.40
2019-05-14T18:16:38.028Z,10.30
2019-05-14T18:21:39.711Z,10.20
2019-05-14T18:26:41.277Z,10.00
2019-05-14T18:31:44.862Z,9.70
2019-05-14T18:36:48.700Z,9.70
2019-05-14T18:41:50.019Z,9.50
2019-05-14T18:46:51.745Z,9.30
2019-05-14T18:51:59.268Z,9.10
2019-05-14T18:57:04.622Z,9.00
2019-05-14T19:02:08.648Z,9.00
2019-05-14T19:07:09.947Z,8.80
2019-05-14T19:12:11.434Z,8.70
2019-05-14T19:17:13.045Z,8.60
2019-05-14T19:22:14.531Z,8.40
2019-05-14T19:27:16.224Z,8.20
2019-05-14T19:32:19.114Z,8.10
2019-05-14T19:37:20.821Z,8.00
2019-05-14T19:42:22.417Z,7.90
2019-05-14T19:47:23.914Z,7.80
2019-05-14T19:52:25.418Z,7.70
2019-05-14T19:57:28.981Z,7.50
2019-05-14T20:02:30.542Z,7.50
2019-05-14T20:07:32.146Z,7.30
2019-05-14T20:12:33.676Z,7.00
2019-05-14T20:17:35.358Z,7.00
2019-05-14T20:22:39.195Z,6.70
2019-05-14T20:27:40.454Z,6.80
2019-05-14T20:32:44.290Z,6.70
2019-05-14T20:37:45.632Z,6.50
2019-05-14T20:42:49.270Z,6.40
2019-05-14T20:47:50.577Z,6.40
2019-05-14T20:52:52.308Z,6.30
2019-05-14T20:57:54.107Z,6.10
2019-05-14T21:02:55.606Z,6.00
2019-05-14T21:07:58.864Z,6.00
2019-05-14T21:13:01.190Z,5.90
2019-05-14T21:18:03.018Z,5.60
2019-05-14T21:23:08.810Z,5.50
2019-05-14T21:28:10.143Z,5.40
2019-05-14T21:33:12.873Z,5.40
2019-05-14T21:38:14.349Z,5.10
2019-05-14T21:43:18.393Z,5.00
2019-05-14T21:48:19.916Z,4.80
2019-05-14T21:53:21.671Z,4.90
2019-05-14T21:58:23.256Z,4.90
2019-05-14T22:03:25.173Z,4.70
2019-05-14T22:08:27.962Z,4.70
2019-05-14T22:13:31.267Z,4.60
2019-05-14T22:18:32.884Z,4.70
2019-05-14T22:23:34.385Z,4.80
2019-05-14T22:28:35.961Z,4.50
2019-05-14T22:33:38.143Z,4.50
2019-05-14T22:38:39.916Z,4.40
2019-05-14T22:43:41.394Z,4.40
2019-05-14T22:48:43.261Z,4.30
2019-05-14T22:53:44.760Z,4.20
2019-05-14T22:58:48.646Z,4.10
2019-05-14T23:03:49.646Z,3.80
2019-05-14T23:08:51.204Z,3.90
2019-05-14T23:13:52.680Z,3.90
2019-05-14T23:18:54.171Z,3.90
2019-05-14T23:23:58.126Z,4.00
2019-05-14T23:28:59.068Z,3.90
2019-05-14T23:34:00.885Z,4.00
2019-05-14T23:39:05.472Z,4.00
2019-05-14T23:44:08.316Z,4.00
2019-05-14T23:49:10.446Z,4.00
2019-05-14T23:54:11.947Z,3.80
2019-05-14T23:59:13.446Z,3.60
